Map

Track Data

SID SEASON NUMBER BASIN SUBBASIN NAME ISO_TIME NATURE LAT LON WMO_WIND WMO_PRES WMO_AGENCY TRACK_TYPE DIST2LAND LANDFALL IFLAG USA_AGENCY USA_ATCF_ID USA_LAT USA_LON USA_RECORD USA_STATUS USA_WIND USA_PRES USA_SSHS USA_R34_NE USA_R34_SE USA_R34_SW USA_R34_NW USA_R50_NE USA_R50_SE USA_R50_SW USA_R50_NW USA_R64_NE USA_R64_SE USA_R64_SW USA_R64_NW USA_POCI USA_ROCI USA_RMW USA_EYE TOKYO_LAT TOKYO_LON TOKYO_GRADE TOKYO_WIND TOKYO_PRES TOKYO_R50_DIR TOKYO_R50_LONG TOKYO_R50_SHORT TOKYO_R30_DIR TOKYO_R30_LONG TOKYO_R30_SHORT TOKYO_LAND CMA_LAT CMA_LON CMA_CAT CMA_WIND CMA_PRES HKO_LAT HKO_LON HKO_CAT HKO_WIND HKO_PRES NEWDELHI_LAT NEWDELHI_LON NEWDELHI_GRADE NEWDELHI_WIND NEWDELHI_PRES NEWDELHI_CI NEWDELHI_DP NEWDELHI_POCI REUNION_LAT REUNION_LON REUNION_TYPE REUNION_WIND REUNION_PRES REUNION_TNUM REUNION_CI REUNION_RMW REUNION_R34_NE REUNION_R34_SE REUNION_R34_SW REUNION_R34_NW REUNION_R50_NE REUNION_R50_SE REUNION_R50_SW REUNION_R50_NW REUNION_R64_NE REUNION_R64_SE REUNION_R64_SW REUNION_R64_NW BOM_LAT BOM_LON BOM_TYPE BOM_WIND BOM_PRES BOM_TNUM BOM_CI BOM_RMW BOM_R34_NE BOM_R34_SE BOM_R34_SW BOM_R34_NW BOM_R50_NE BOM_R50_SE BOM_R50_SW BOM_R50_NW BOM_R64_NE BOM_R64_SE BOM_R64_SW BOM_R64_NW BOM_ROCI BOM_POCI BOM_EYE BOM_POS_METHOD BOM_PRES_METHOD NADI_LAT NADI_LON NADI_CAT NADI_WIND NADI_PRES WELLINGTON_LAT WELLINGTON_LON WELLINGTON_WIND WELLINGTON_PRES DS824_LAT DS824_LON DS824_STAGE DS824_WIND DS824_PRES TD9636_LAT TD9636_LON TD9636_STAGE TD9636_WIND TD9636_PRES TD9635_LAT TD9635_LON TD9635_WIND TD9635_PRES TD9635_ROCI NEUMANN_LAT NEUMANN_LON NEUMANN_CLASS NEUMANN_WIND NEUMANN_PRES MLC_LAT MLC_LON MLC_CLASS MLC_WIND MLC_PRES USA_GUST BOM_GUST BOM_GUST_PER REUNION_GUST REUNION_GUST_PER USA_SEAHGT USA_SEARAD_NE USA_SEARAD_SE USA_SEARAD_SW USA_SEARAD_NW STORM_SPEED STORM_DIR
1975221N18116 1975 68 WP MM RITA 1975-08-09 06:00:00 TS 18.4000 116.000 main 463 453 __O___________ -1 18.4000 116.000 0 997 9 270
1975221N18116 1975 68 WP MM RITA 1975-08-09 09:00:00 TS 18.4002 115.505 main 453 441 __P___________ -1 18.4002 115.505 0 997 9 270
1975221N18116 1975 68 WP MM RITA 1975-08-09 12:00:00 TS 18.4000 115.000 main 441 391 __O___________ -1 18.4000 115.000 0 19 997 10 271
1975221N18116 1975 68 WP MM RITA 1975-08-09 15:00:00 TS 18.4125 114.485 main 391 348 __P___________ -1 18.4125 114.485 0 19 997 9 279
1975221N18116 1975 68 WP MM RITA 1975-08-09 18:00:00 TS 18.5333 114.100 1000 tokyo main 348 317 _OOO__________ -1 18.5000 114.000 2 1000 0 0 0 18.5000 114.000 0 19 997 18.7000 114.600 TD 25 996 7 304
1975221N18116 1975 68 WP MM RITA 1975-08-09 21:00:00 TS 18.7766 113.910 main 317 291 _PPP__________ -1 18.7992 114.190 2 999 0 0 18.7348 113.585 0 21 996 18.8375 114.280 TD 25 996 6 318
1975221N18116 1975 68 WP MM RITA 1975-08-10 00:00:00 TS 19.0000 113.650 998 tokyo main 291 237 _OOO__________ -1 19.0000 114.000 2 998 0 0 0 19.0000 113.200 1 23 996 19.0000 113.900 TD 25 996 8 297
1975221N18116 1975 68 WP MM RITA 1975-08-10 03:00:00 TS 19.1405 113.153 main 237 173 _PPP__________ -1 19.0391 113.230 2 998 0 0 19.1949 112.808 1 26 996 19.1875 113.423 TD 25 995 10 281
1975221N18116 1975 68 WP MM RITA 1975-08-10 06:00:00 TS 19.2000 112.567 998 tokyo main 173 133 _OOO__________ -1 19.0000 112.400 2 998 0 0 0 19.3000 112.400 1 29 996 19.3000 112.900 TD 25 994 9 273
1975221N18116 1975 68 WP MM RITA 1975-08-10 09:00:00 TS 19.1821 112.173 main 133 100 _PPP__________ -1 18.9992 112.155 2 998 0 0 19.2949 111.957 1 29 995 19.2523 112.407 TD 25 994 7 262
1975221N18116 1975 68 WP MM RITA 1975-08-10 12:00:00 TS 19.1000 111.800 998 tokyo main 100 69 _OOO__________ -1 19.0000 112.000 2 998 0 0 0 19.2000 111.500 1 29 995 19.1000 111.900 TD 25 994 9 257
1975221N18116 1975 68 WP MM RITA 1975-08-10 15:00:00 TS 18.9935 111.295 main 69 23 _PPP__________ -1 19.0154 111.500 2 998 0 0 19.0499 111.042 1 29 993 18.9150 111.342 TD 25 994 10 256
1975221N18116 1975 68 WP MM RITA 1975-08-10 18:00:00 TS 18.8667 110.800 998 tokyo main 23 0 _OOO__________ -1 19.0000 111.000 2 998 0 0 0 18.9000 110.600 1 29 992 18.7000 110.800 TD 25 994 9 254
1975221N18116 1975 68 WP MM RITA 1975-08-10 21:00:00 TS 18.7549 110.405 main 0 0 _PPP__________ -1 18.9073 110.740 2 996 0 0 18.8649 110.178 1 24 992 18.4925 110.298 TD 25 993 7 251
1975221N18116 1975 68 WP MM RITA 1975-08-11 00:00:00 TS 18.6333 110.100 994 tokyo main 0 0 _OOO__________ -1 18.8000 110.600 2 994 0 0 0 18.8000 109.800 0 19 993 18.3000 109.900 TD 25 992 6 241
1975221N18116 1975 68 WP MM RITA 1975-08-11 03:00:00 TS 18.4782 109.870 main 0 0 _PPP__________ -1 18.7349 110.500 2 993 0 0 18.5800 109.440 0 24 991 18.1198 109.670 TD 25 991 5 232
1975221N18116 1975 68 WP MM RITA 1975-08-11 06:00:00 TS 18.3333 109.700 992 tokyo main 0 0 _OOO__________ -1 18.7000 110.400 2 992 0 0 0 18.3000 109.200 1 29 990 18.0000 109.500 TD 25 990 4 230
1975221N18116 1975 68 WP MM RITA 1975-08-11 09:00:00 TS 18.2100 109.528 main 0 0 _PPP__________ -1 18.6925 110.208 2 992 0 0 17.9899 109.148 1 29 990 17.9476 109.228 TD 25 990 3 240
1975221N18116 1975 68 WP MM RITA 1975-08-11 12:00:00 TS 18.1667 109.400 992 tokyo main 10 10 _OOO__________ -1 18.7000 110.000 2 992 0 0 0 17.8000 109.200 1 29 990 18.0000 109.000 TD 25 990 2 281
1975221N18116 1975 68 WP MM RITA 1975-08-11 15:00:00 TS 18.2483 109.320 main 21 0 _PPP__________ -1 18.6925 109.842 2 992 0 0 17.8900 109.242 1 29 990 18.1624 108.875 TD 25 990 3 337
1975221N18116 1975 68 WP MM RITA 1975-08-11 18:00:00 TS 18.4000 109.300 992 tokyo main 0 0 _OOO__________ -1 18.7000 109.700 2 992 0 0 0 18.1000 109.300 1 29 990 18.4000 108.900 TD 25 990 3 0
1975221N18116 1975 68 WP MM RITA 1975-08-11 21:00:00 TS 18.5525 109.305 main 0 0 _PPP__________ -1 18.7350 109.483 2 992 0 0 18.2500 109.335 1 26 990 18.6725 109.097 TD 27 987 3 17
1975221N18116 1975 68 WP MM RITA 1975-08-12 00:00:00 TS 18.7000 109.400 992 tokyo main 0 0 _OOO__________ -1 18.8000 109.400 2 992 0 0 0 18.4000 109.400 1 23 990 18.9000 109.400 TD 30 985 4 50
1975221N18116 1975 68 WP MM RITA 1975-08-12 03:00:00 TS 18.8050 109.620 main 0 0 _PPP__________ -1 18.9078 109.677 2 991 0 0 18.5423 109.490 1 26 989 18.9650 109.693 TD 30 985 5 67
1975221N18116 1975 68 WP MM RITA 1975-08-12 06:00:00 TS 18.9000 109.900 990 tokyo main 0 0 _OOO__________ -1 19.0000 110.000 2 990 0 0 0 18.7000 109.700 1 29 988 19.0000 110.000 TD 30 985 5 70
1975221N18116 1975 68 WP MM RITA 1975-08-12 09:00:00 TS 18.9792 110.133 main 0 0 _PPP__________ -1 18.9397 109.971 2 990 0 0 18.8777 110.120 1 33 987 19.1200 110.308 TD 30 985 5 64
1975221N18116 1975 68 WP MM RITA 1975-08-12 12:00:00 TS 19.1333 110.400 990 tokyo main 0 0 _OOO__________ -1 19.0000 110.000 2 990 0 0 0 19.1000 110.600 2 38 986 19.3000 110.600 TD 30 985 7 51
1975221N18116 1975 68 WP MM RITA 1975-08-12 15:00:00 TS 19.4458 110.744 main 0 0 _PPP__________ -1 19.4253 110.424 2 990 0 0 19.3848 110.958 2 38 985 19.5274 110.850 TD 30 986 10 45
1975221N18116 1975 68 WP MM RITA 1975-08-12 18:00:00 TS 19.8333 111.133 990 tokyo main 20 20 _OOO__________ -1 20.0000 111.000 2 990 0 0 0 19.7000 111.300 2 38 985 19.8000 111.100 TD 30 988 11 44
1975221N18116 1975 68 WP MM RITA 1975-08-12 21:00:00 TS 20.2125 111.536 main 71 71 _PPP__________ -1 20.5376 111.545 2 991 0 0 19.9925 111.693 2 38 985 20.1073 111.370 TD 30 988 11 46
1975221N18116 1975 68 WP MM RITA 1975-08-13 00:00:00 TS 20.5667 111.933 992 tokyo main 105 98 _OOO__________ -1 21.0000 112.000 2 992 0 0 0 20.3000 112.100 2 38 985 20.4000 111.700 TD 30 988 10 47
1975221N18116 1975 68 WP MM RITA 1975-08-13 03:00:00 TS 20.8532 112.281 main 89 73 _PPP__________ -1 21.3170 112.201 2 992 0 0 20.6426 112.530 2 38 985 20.5999 112.113 TD 30 988 8 51
1975221N18116 1975 68 WP MM RITA 1975-08-13 06:00:00 TS 21.1000 112.633 992 tokyo main 73 67 _OOO__________ -1 21.5000 112.400 2 992 0 0 0 21.0000 112.900 2 38 985 20.8000 112.600 TD 30 988 9 58
1975221N18116 1975 68 WP MM RITA 1975-08-13 09:00:00 TS 21.3235 113.075 main 67 53 _PPP__________ -1 21.5579 112.885 2 992 0 0 21.3649 113.153 2 38 985 21.0479 113.187 TD 30 989 9 59
1975221N18116 1975 68 WP MM RITA 1975-08-13 12:00:00 TS 21.5667 113.467 992 tokyo main 59 39 _OOO__________ -1 21.6000 113.400 2 992 0 0 0 21.7000 113.300 2 38 985 21.4000 113.700 TD 30 990 8 47
1975221N18116 1975 68 WP MM RITA 1975-08-13 15:00:00 TS 21.8799 113.722 main 39 24 _PPP__________ -1 21.7324 113.797 2 991 0 0 21.9575 113.373 2 33 986 21.9497 113.997 TD 30 990 8 27
1975221N18116 1975 68 WP MM RITA 1975-08-13 18:00:00 TS 22.2333 113.833 990 tokyo main 24 10 _OOO__________ -1 22.0000 114.000 2 990 0 0 0 22.2000 113.400 1 29 988 22.5000 114.100 TD 30 990 7 5
1975221N18116 1975 68 WP MM RITA 1975-08-13 21:00:00 TS 22.6000 113.792 main 10 0 _PPP__________ -1 22.4475 113.881 2 991 0 0 22.5000 113.443 1 24 989 22.8525 114.053 TD 27 990 7 349
1975221N18116 1975 68 WP MM RITA 1975-08-14 00:00:00 TS 22.9545 113.682 992 tokyo main 0 0 _OOO__________ -1 23.0000 113.700 2 992 0 0 0 22.8000 113.500 0 19 990 23.1000 113.900 TD 25 990 7 352
1975221N18116 1975 68 WP MM RITA 1975-08-14 03:00:00 TS 23.3014 113.676 main 0 0 _PPP__________ -1 23.5950 113.769 2 993 0 0 23.0048 113.548 0 19 990 23.3075 113.745 TD 25 991 7 7
1975221N18116 1975 68 WP MM RITA 1975-08-14 06:00:00 TS 23.6778 113.778 994 tokyo main 0 0 _OOO__________ -1 24.1000 113.900 2 994 0 0 0 23.3000 113.700 0 19 990 23.5000 113.600 TD 25 992 9 22
1975221N18116 1975 68 WP MM RITA 1975-08-14 09:00:00 TS 24.1452 114.039 main 0 0 _PP___________ -1 24.3600 113.965 2 994 0 0 23.9305 114.113 0 18 991 TD 9 28
1975221N18116 1975 68 WP MM RITA 1975-08-14 12:00:00 TS 24.5000 114.250 994 tokyo main 0 0 _OO___________ -1 24.5000 114.000 2 994 0 0 0 24.5000 114.500 0 17 993 6 25
1975221N18116 1975 68 WP MM RITA 1975-08-14 15:00:00 TS 24.6449 114.295 main 0 0 _PP___________ -1 24.6650 114.008 2 994 0 0 24.6248 114.583 0 17 993 2 8
1975221N18116 1975 68 WP MM RITA 1975-08-14 18:00:00 TS 24.7000 114.250 994 tokyo main 0 0 _OO___________ -1 24.8000 114.000 2 994 0 0 0 24.6000 114.500 0 17 994 2 323
1975221N18116 1975 68 WP MM RITA 1975-08-14 21:00:00 TS 24.8149 114.152 main 0 0 _PP___________ -1 24.9373 113.940 2 995 0 0 24.6925 114.365 0 17 994 2 325
1975221N18116 1975 68 WP MM RITA 1975-08-15 00:00:00 TS 24.9000 114.100 996 tokyo main 0 0 _OO___________ -1 25.0000 114.000 2 996 0 0 0 24.8000 114.200 0 17 994 1 14
1975221N18116 1975 68 WP MM RITA 1975-08-15 03:00:00 TS 24.9299 114.201 main 0 0 _PP___________ -1 24.9749 114.310 2 995 0 0 24.8850 114.092 0 17 994 3 93
1975221N18116 1975 68 WP MM RITA 1975-08-15 06:00:00 TS 24.8857 114.457 994 tokyo main 0 0 _OO___________ -1 24.8000 114.800 2 994 0 0 0 25.0000 114.000 0 17 994 7 114
1975221N18116 1975 68 WP MM RITA 1975-08-15 09:00:00 TS 24.6502 114.892 main 0 0 _PP___________ -1 24.3853 115.386 2 995 0 0 25.1800 113.903 0 17 994 13 122
1975221N18116 1975 68 WP MM RITA 1975-08-15 12:00:00 TS 24.1833 115.683 996 tokyo main 0 0 _OO___________ -1 24.0000 116.000 2 996 0 0 0 25.4000 113.800 0 17 995 17 115
1975221N18116 1975 68 WP MM RITA 1975-08-15 15:00:00 TS 23.9381 116.584 main 0 0 _P____________ -1 23.9397 116.514 2 996 0 0 0 13 94
1975221N18116 1975 68 WP MM RITA 1975-08-15 18:00:00 TS 24.0857 117.086 996 tokyo main 0 0 _O____________ -1 24.0000 117.000 2 996 0 0 0 10 73
1975221N18116 1975 68 WP MM RITA 1975-08-15 21:00:00 TS 24.2477 117.662 main 0 0 _P____________ -1 24.0003 117.575 2 997 0 0 10 75
1975221N18116 1975 68 WP MM RITA 1975-08-16 00:00:00 TS 24.3500 118.150 998 tokyo main 11 10 _O____________ -1 24.0000 118.000 2 998 0 0 0 7 81
1975221N18116 1975 68 WP MM RITA 1975-08-16 03:00:00 TS 24.3510 118.394 main 22 22 _P____________ -1 23.9995 117.993 2 997 0 0 4 97
1975221N18116 1975 68 WP MM RITA 1975-08-16 06:00:00 TS 24.3000 118.600 996 tokyo main 22 22 _O____________ -1 24.0000 118.000 2 996 0 0 0 5 100
1975221N18116 1975 68 WP MM RITA 1975-08-16 09:00:00 TS 24.2539 118.981 main 45 45 _P____________ -1 24.0005 118.483 2 996 0 0 7 101
1975221N18116 1975 68 WP MM RITA 1975-08-16 12:00:00 TS 24.1714 119.357 996 tokyo main 83 71 _O____________ -1 24.0000 119.100 2 996 0 0 0 6 105
1975221N18116 1975 68 WP MM RITA 1975-08-16 15:00:00 TS 24.0984 119.635 main 71 30 _P____________ -1 23.9987 119.483 2 996 0 0 6 102
1975221N18116 1975 68 WP MM RITA 1975-08-16 18:00:00 TS 24.0400 120.040 996 tokyo main 30 0 _O____________ -1 24.0000 120.000 2 996 0 0 0 12 91
1975221N18116 1975 68 WP MM RITA 1975-08-16 21:00:00 TS 24.0756 120.916 main 0 0 _P____________ -1 24.0756 120.916 2 996 0 0 32 93
1975221N18116 1975 68 WP MM RITA 1975-08-17 00:00:00 TS 23.8500 123.550 996 tokyo main 184 189 OO_______OOO__ jtwc_wp WP081975 23.7000 125.100 25 -1 24.0000 122.000 2 996 0 0 0 23.7000 125.100 TC 25 23.7000 125.100 1 25 23.7000 125.100 25 996 120 35 96
1975221N18116 1975 68 WP MM RITA 1975-08-17 03:00:00 TS 23.6746 124.770 main 307 307 PP_______PPP__ WP081975 23.8026 125.615 25 -1 23.4250 123.042 2 996 0 0 23.8026 125.615 TC 25 23.7897 125.689 1 25 23.8026 125.615 25 996 120 19 95
1975221N18116 1975 68 WP MM RITA 1975-08-17 06:00:00 TS 23.6718 125.667 996 tokyo main 395 395 OO_______OPO__ jtwc_wp WP081975 23.9000 126.200 25 -1 23.0000 124.000 2 996 0 0 0 23.9000 126.200 TC 25 23.8827 126.293 1 25 23.9000 126.200 25 997 120 16 83
1975221N18116 1975 68 WP MM RITA 1975-08-17 09:00:00 TS 23.8622 126.473 main 471 471 PP_______PPP__ WP081975 23.9927 126.893 25 -1 23.3487 124.763 2 997 0 0 23.9927 126.893 TC 25 23.9844 126.925 1 25 23.9927 126.893 25 997 150 14 74
1975221N18116 1975 68 WP MM RITA 1975-08-17 12:00:00 TS 24.0800 127.180 998 tokyo main 535 535 OO_______OOO__ jtwc_wp WP081975 24.1000 127.600 25 -1 24.0000 125.500 2 998 0 0 0 24.1000 127.600 TC 25 24.1000 127.600 1 25 24.1000 127.600 25 998 180 13 70
1975221N18116 1975 68 WP MM RITA 1975-08-17 15:00:00 TS 24.3228 127.859 main 600 600 PP_______PPP__ WP081975 24.2494 128.200 25 -1 24.5750 126.384 2 997 0 0 24.2494 128.200 TC 25 24.2311 128.319 1 25 24.2494 128.200 25 998 210 13 71
1975221N18116 1975 68 WP MM RITA 1975-08-17 18:00:00 TS 24.5030 128.524 996 tokyo main 658 658 OO_______OPO__ jtwc_wp WP081975 24.4000 128.800 25 -1 25.0000 127.300 2 996 0 0 0 24.4000 128.800 TC 25 24.3668 129.034 1 25 24.4000 128.800 25 998 240 13 78
1975221N18116 1975 68 WP MM RITA 1975-08-17 21:00:00 TS 24.5947 129.260 main 727 718 PP_______PPP__ WP081975 24.5157 129.560 25 -1 25.0746 128.174 2 996 0 0 24.5157 129.560 TC 25 24.4938 129.682 1 25 24.5157 129.560 25 998 300 13 83
1975221N18116 1975 68 WP MM RITA 1975-08-18 00:00:00 TS 24.6500 129.900 996 tokyo main 707 704 OO_______OOO__ jtwc_wp WP081975 24.6000 130.200 25 -1 25.0000 129.000 2 996 0 0 0 24.6000 130.200 TC 25 24.6000 130.200 1 25 24.6000 130.200 25 998 360 10 84
1975221N18116 1975 68 WP MM RITA 1975-08-18 03:00:00 TS 24.7002 130.337 main 704 703 PP_______PPP__ WP081975 24.6569 130.483 25 -1 25.0002 129.840 2 995 0 0 24.6569 130.483 TC 25 24.6374 130.561 1 26 24.6569 130.483 25 997 360 7 82
1975221N18116 1975 68 WP MM RITA 1975-08-18 06:00:00 TS 24.7417 130.613 994 tokyo main 703 692 OO_______OPO__ jtwc_wp WP081975 24.7000 130.600 25 -1 25.0000 130.500 2 994 0 0 0 24.7000 130.600 TC 25 24.6606 130.783 1 27 24.7000 130.600 25 996 360 4 80
1975221N18116 1975 68 WP MM RITA 1975-08-18 09:00:00 TS 24.7769 130.809 main 692 681 PP_______PPP__ WP081975 24.7125 130.758 27 -1 24.9994 130.862 2 994 0 0 24.7125 130.758 TC 27 24.7036 130.889 1 28 24.7125 130.758 27 995 360 3 64
1975221N18116 1975 68 WP MM RITA 1975-08-18 12:00:00 TS 24.8778 130.926 994 tokyo main 681 659 OO_______OOO__ jtwc_wp WP081975 24.8000 130.900 30 -1 25.0000 131.000 2 994 0 0 0 24.8000 130.900 TC 30 24.8000 130.900 1 30 24.8000 130.900 30 994 360 4 35
1975221N18116 1975 68 WP MM RITA 1975-08-18 15:00:00 TS 25.1077 131.060 main 659 626 PP_______PPP__ WP081975 25.0774 131.132 30 -1 24.9248 131.082 2 994 0 0 25.0774 131.132 TC 30 25.0248 130.878 1 31 25.0774 131.132 30 993 420 5 13
1975221N18116 1975 68 WP MM RITA 1975-08-18 18:00:00 TS 25.3714 131.053 994 tokyo main 626 602 OO_______OPO__ jtwc_wp WP081975 25.4000 131.200 30 -1 25.0000 131.000 2 994 0 0 0 25.4000 131.200 TC 30 25.2998 130.771 1 32 25.4000 131.200 30 992 480 6 335
1975221N18116 1975 68 WP MM RITA 1975-08-18 21:00:00 TS 25.6195 130.797 main 602 580 PP_______PPP__ WP081975 25.6379 130.861 32 -1 25.5077 130.724 2 992 0 0 25.6379 130.861 TC 32 25.5749 130.603 1 33 25.6379 130.861 32 990 510 7 309
1975221N18116 1975 68 WP MM RITA 1975-08-19 00:00:00 TS 25.8000 130.457 990 tokyo main 580 580 OO_______OOO__ jtwc_wp WP081975 25.8000 130.400 35 0 26.0000 130.400 9 990 0 0 0 25.8000 130.400 TC 35 25.8000 130.400 2 35 25.8000 130.400 35 989 540 6 293
1975221N18116 1975 68 WP MM RITA 1975-08-19 03:00:00 TS 25.8399 130.232 main 582 582 PP_______PPP__ WP081975 25.8723 130.120 35 0 26.0248 130.242 9 990 0 0 25.8723 130.120 TC 35 25.8953 130.207 2 36 25.8723 130.120 35 987 540 4 275
1975221N18116 1975 68 WP MM RITA 1975-08-19 06:00:00 TS 25.8339 130.027 990 tokyo main 584 574 OO_______OPO__ jtwc_wp WP081975 25.9000 129.900 35 0 25.9000 130.100 9 990 0 0 0 25.9000 129.900 TC 35 25.9375 129.987 2 37 25.9000 129.900 35 986 540 4 274
1975221N18116 1975 68 WP MM RITA 1975-08-19 09:00:00 TS 25.8658 129.794 main 576 576 PP_______PPP__ WP081975 25.9350 129.685 37 0 25.8701 129.857 9 987 0 0 25.9350 129.685 TC 37 25.9609 129.748 2 38 25.9350 129.685 37 985 540 4 285
1975221N18116 1975 68 WP MM RITA 1975-08-19 12:00:00 TS 25.9429 129.571 985 tokyo main 579 561 OO_______OOO__ jtwc_wp WP081975 26.0000 129.500 40 0 25.9000 129.600 9 985 0 0 0 26.0000 129.500 TC 40 26.0000 129.500 2 40 26.0000 129.500 40 985 540 4 303
1975221N18116 1975 68 WP MM RITA 1975-08-19 15:00:00 TS 26.1001 129.389 main 561 544 PP_______PPP__ WP081975 26.1423 129.372 40 0 26.0199 129.407 9 985 0 0 26.1423 129.372 TC 40 26.1119 129.189 2 41 26.1423 129.372 40 985 510 5 314
1975221N18116 1975 68 WP MM RITA 1975-08-19 18:00:00 TS 26.2776 129.183 985 tokyo main 544 539 OO_______OPO__ jtwc_wp WP081975 26.3000 129.200 40 0 26.2000 129.200 9 985 0 0 0 26.3000 129.200 TC 40 26.2429 128.881 2 42 26.3000 129.200 40 986 480 6 303
1975221N18116 1975 68 WP MM RITA 1975-08-19 21:00:00 TS 26.4084 128.860 main 542 538 PP_______PPP__ WP081975 26.4003 128.828 42 0 26.3927 128.885 9 985 0 0 26.4003 128.828 TC 42 26.3774 128.633 2 43 26.4003 128.828 42 988 480 6 295
1975221N18116 1975 68 WP MM RITA 1975-08-20 00:00:00 TS 26.5286 128.586 985 tokyo main 542 525 OO_______OOO__ jtwc_wp WP081975 26.5000 128.500 45 0 26.6000 128.600 9 985 0 0 0 26.5000 128.500 TC 45 26.5000 128.500 2 45 26.5000 128.500 45 990 480 5 306
1975221N18116 1975 68 WP MM RITA 1975-08-20 03:00:00 TS 26.6732 128.452 main 525 515 PP_______PPP__ WP081975 26.6647 128.395 45 0 26.8596 128.380 9 982 0 0 26.6647 128.395 TC 45 26.5438 128.497 2 46 26.6647 128.395 45 989 480 3 349
1975221N18116 1975 68 WP MM RITA 1975-08-20 06:00:00 TS 26.7830 128.517 980 tokyo main 515 503 OO_______OPO__ jtwc_wp WP081975 26.8000 128.500 45 0 27.0000 128.400 9 980 0 0 0 26.8000 128.500 TC 45 26.5812 128.619 2 47 26.8000 128.500 45 988 480 3 73
1975221N18116 1975 68 WP MM RITA 1975-08-20 09:00:00 TS 26.7700 128.801 main 503 490 PP_______PPP__ WP081975 26.7922 128.753 47 0 26.7704 128.812 9 980 0 0 26.7922 128.753 TC 47 26.6530 128.857 2 48 26.7922 128.753 47 984 480 7 89
1975221N18116 1975 68 WP MM RITA 1975-08-20 12:00:00 TS 26.8000 129.257 980 tokyo main 488 454 OO_______OOO__ jtwc_wp WP081975 26.8000 129.200 50 0 26.6000 129.400 9 980 0 0 0 26.8000 129.200 TC 50 26.8000 129.200 2 50 26.8000 129.200 50 980 480 9 75
1975221N18116 1975 68 WP MM RITA 1975-08-20 15:00:00 TS 27.0122 129.807 main 454 414 PP_______PPP__ WP081975 26.9257 129.843 52 0 26.9100 129.914 9 980 0 0 26.9257 129.843 TC 52 27.0809 129.670 2 52 26.9257 129.843 52 978 510 11 61
1975221N18116 1975 68 WP MM RITA 1975-08-20 18:00:00 TS 27.3479 130.376 980 tokyo main 414 368 OO_______OPO__ jtwc_wp WP081975 27.2000 130.500 55 0 27.4000 130.400 9 980 0 0 0 27.2000 130.500 TC 55 27.4352 130.231 2 55 27.2000 130.500 55 976 540 12 51
1975221N18116 1975 68 WP MM RITA 1975-08-20 21:00:00 TS 27.7690 130.848 main 357 316 PP_______PPP__ WP081975 27.6847 130.967 57 0 27.8000 130.853 9 977 0 0 27.6847 130.967 TC 57 27.8216 130.802 2 57 27.6847 130.967 57 974 570 11 42
1975221N18116 1975 68 WP MM RITA 1975-08-21 00:00:00 TS 28.2000 131.229 975 tokyo main 316 287 OO_______OOO__ jtwc_wp WP081975 28.2000 131.300 60 0 28.2000 131.200 9 975 0 0 0 28.2000 131.300 TC 60 28.2000 131.300 2 60 28.2000 131.300 60 973 600 10 37
1975221N18116 1975 68 WP MM RITA 1975-08-21 03:00:00 TS 28.5243 131.503 main 289 263 PP_______PPP__ WP081975 28.5297 131.523 62 0 28.6221 131.358 9 972 0 0 28.5297 131.523 TC 62 28.5090 131.605 2 62 28.5297 131.523 62 973 600 8 36
1975221N18116 1975 68 WP MM RITA 1975-08-21 06:00:00 TS 28.8151 131.733 970 tokyo main 263 241 OO_______OPO__ jtwc_wp WP081975 28.8000 131.700 65 1 29.0000 131.500 9 970 0 0 0 28.8000 131.700 TC 65 28.8058 131.828 2 65 28.8000 131.700 65 973 600 7 36
1975221N18116 1975 68 WP MM RITA 1975-08-21 09:00:00 TS 29.1235 131.998 main 246 229 PP_______PPP__ WP081975 29.0999 131.935 67 1 29.2727 131.835 9 970 0 0 29.0999 131.935 TC 67 29.0999 132.011 2 67 29.0999 131.935 67 972 600 8 38
1975221N18116 1975 68 WP MM RITA 1975-08-21 12:00:00 TS 29.4286 132.271 970 tokyo main 235 216 OO_______OOO__ jtwc_wp WP081975 29.4000 132.200 70 1 29.5000 132.200 9 970 0 0 0 29.4000 132.200 TC 70 29.4000 132.200 3 70 29.4000 132.200 70 972 600 8 39
1975221N18116 1975 68 WP MM RITA 1975-08-21 15:00:00 TS 29.7091 132.551 main 221 205 PP_______PPP__ WP081975 29.6925 132.500 70 1 29.7349 132.465 9 970 0 0 29.6925 132.500 TC 70 29.6813 132.462 3 71 29.6925 132.500 70 971 630 8 39
1975221N18116 1975 68 WP MM RITA 1975-08-21 18:00:00 TS 30.0107 132.820 970 tokyo main 205 195 OO_______OPO__ jtwc_wp WP081975 30.0000 132.800 70 1 30.0000 132.700 9 970 0 0 0 30.0000 132.800 TC 70 29.9750 132.737 3 72 30.0000 132.800 70 971 660 8 34
1975221N18116 1975 68 WP MM RITA 1975-08-21 21:00:00 TS 30.3597 133.061 main 196 188 PP_______PPP__ WP081975 30.3124 133.051 72 1 30.3125 132.950 9 970 0 0 30.3124 133.051 TC 72 30.3062 133.018 3 73 30.3124 133.051 72 969 660 9 29
1975221N18116 1975 68 WP MM RITA 1975-08-22 00:00:00 TS 30.7714 133.300 970 tokyo main 192 173 OO_______OOO__ jtwc_wp WP081975 30.7000 133.300 75 1 30.7000 133.200 9 970 0 0 0 30.7000 133.300 TC 75 30.7000 133.300 4 75 30.7000 133.300 75 968 660 10 26
1975221N18116 1975 68 WP MM RITA 1975-08-22 03:00:00 TS 31.2411 133.565 main 176 134 PP_______PPP__ WP081975 31.2200 133.600 75 1 31.1550 133.450 9 970 0 0 31.2200 133.600 TC 75 31.1527 133.568 4 76 31.2200 133.600 75 967 660 11 25
1975221N18116 1975 68 WP MM RITA 1975-08-22 06:00:00 TS 31.7675 133.834 970 tokyo main 125 100 OO_______OPO__ jtwc_wp WP081975 31.8000 133.900 75 1 31.7000 133.700 9 970 0 0 0 31.8000 133.900 TC 75 31.6723 133.837 4 77 31.8000 133.900 75 966 660 12 23
1975221N18116 1975 68 WP MM RITA 1975-08-22 09:00:00 TS 32.3108 134.090 main 100 34 PP_______PPP__ WP081975 32.3274 134.165 77 1 32.3350 133.950 9 967 0 0 32.3274 134.165 TC 77 32.2558 134.112 4 78 32.3274 134.165 77 967 630 12 21
1975221N18116 1975 68 WP MM RITA 1975-08-22 12:00:00 TS 32.9143 134.343 965 tokyo main 34 18 OO_______OOO__ jtwc_wp WP081975 32.9000 134.400 80 1 33.0000 134.200 9 965 0 0 0 32.9000 134.400 TC 80 32.9000 134.400 4 80 32.9000 134.400 80 968 600 13 17
1975221N18116 1975 68 WP MM RITA 1975-08-22 15:00:00 TS 33.5779 134.552 main 14 0 PP_______PPP__ WP081975 33.5622 134.571 75 1 33.5769 134.392 9 967 0 0 33.5622 134.571 TC 75 33.5422 134.552 4 73 33.5622 134.571 75 971 600 15 16
1975221N18116 1975 68 WP MM RITA 1975-08-22 18:00:00 TS 34.3068 134.820 970 tokyo main 27 0 OO_______OPO__ jtwc_wp WP081975 34.3000 134.800 70 1 34.2000 134.700 9 970 0 0 0 34.3000 134.800 TC 70 34.2475 134.740 4 67 34.3000 134.800 70 974 600 16 19
1975221N18116 1975 68 WP MM RITA 1975-08-22 21:00:00 TS 35.0587 135.164 main 0 0 PP_______PPP__ WP081975 35.0911 135.117 62 0 34.8789 135.213 9 975 0 0 35.0911 135.117 TC 62 35.0294 135.081 4 61 35.0911 135.117 62 977 600 18 26
1975221N18116 1975 68 WP MM RITA 1975-08-23 00:00:00 TS 35.8857 135.757 980 tokyo main 21 0 OO_______OOO__ jtwc_wp WP081975 35.9000 135.700 55 0 35.8000 136.000 9 980 0 0 0 35.9000 135.700 TC 55 35.9000 135.700 2 55 35.9000 135.700 55 980 600 21 36
1975221N18116 1975 68 WP MM RITA 1975-08-23 03:00:00 TS 36.7743 136.702 main 0 0 PP_______PPP__ WP081975 36.5734 136.620 52 0 37.2534 137.108 9 982 0 0 36.5734 136.620 TC 52 36.8579 136.777 2 48 36.5734 136.620 52 982 570 26 44
1975221N18116 1975 68 WP MM RITA 1975-08-23 06:00:00 TS 37.7572 137.979 984 tokyo main 62 20 OO_______OPO__ jtwc_wp WP081975 37.4000 137.900 50 0 38.6000 138.400 9 984 0 0 0 37.4000 137.900 TC 50 37.8864 138.158 2 42 37.4000 137.900 50 985 540 30 47
1975221N18116 1975 68 WP MM RITA 1975-08-23 09:00:00 TS 38.8416 139.521 main 14 0 PP_______PPP__ WP081975 38.6658 139.554 40 0 39.0859 139.607 9 987 0 0 38.6658 139.554 TC 40 38.9451 139.713 2 36 38.6658 139.554 40 987 510 33 48
1975221N18116 1975 68 WP MM RITA 1975-08-23 12:00:00 TS 39.9280 141.116 990 tokyo main 0 0 OO_______OOO__ jtwc_wp WP081975 40.0000 141.300 30 -1 39.5000 140.800 9 990 0 0 0 40.0000 141.300 TC 30 40.0000 141.300 1 30 40.0000 141.300 30 990 480 30 47
1975221N18116 1975 68 WP MM RITA 1975-08-23 15:00:00 TS 40.8922 142.405 main 80 27 PP_______PPP__ WP081975 41.0404 142.690 30 -1 40.5484 141.956 9 991 0 0 41.0404 142.690 TC 30 40.9614 142.727 1 31 41.0404 142.690 30 992 450 28 45
1975221N18116 1975 68 WP MM RITA 1975-08-23 18:00:00 TS 41.9043 143.725 992 tokyo main 34 19 OO_______OPO__ jtwc_wp WP081975 42.0000 144.000 30 -1 41.8000 143.300 9 992 0 0 0 42.0000 144.000 TC 30 41.9256 144.152 1 32 42.0000 144.000 30 995 420 29 46
1975221N18116 1975 68 WP MM RITA 1975-08-23 21:00:00 TS 42.9252 145.269 main 26 8 PP_______PPP__ WP081975 42.9616 145.484 32 -1 42.8495 145.082 9 996 0 0 42.9616 145.484 TC 32 42.9270 145.575 1 33 42.9616 145.484 32 997 420 31 48
1975221N18116 1975 68 WP MM RITA 1975-08-24 00:00:00 MX 44.0261 146.909 1000 tokyo main 54 7 OO_______OOO__ jtwc_wp WP081975 44.0000 147.000 35 0 44.0000 147.000 6 1000 0 0 0 44.0000 147.000 TC 35 44.0000 147.000 2 35 44.0000 147.000 35 1000 420 33 45
1975221N18116 1975 68 WP MM RITA 1975-08-24 03:00:00 MX 45.2448 148.461 main 11 0 PP_______PPP__ WP081975 45.2107 148.504 35 0 45.2712 148.525 6 1000 0 0 45.2107 148.504 TC 35 45.1685 148.436 2 35 45.2107 148.504 35 1000 360 34 41
1975221N18116 1975 68 WP MM RITA 1975-08-24 06:00:00 MX 46.6258 150.100 1000 tokyo main 56 56 OO_______OPO__ jtwc_wp WP081975 46.5000 150.000 35 0 47.0000 150.500 6 1000 0 0 0 46.5000 150.000 TC 35 46.4131 149.902 2 35 46.5000 150.000 35 1000 300 41 41
1975221N18116 1975 68 WP MM RITA 1975-08-24 09:00:00 MX 48.3694 152.348 main 281 7 PP_______PPP__ WP081975 47.7661 151.487 35 0 49.6082 154.106 6 1000 0 0 47.7661 151.487 TC 35 47.7016 151.418 2 35 47.7661 151.487 35 1000 270 53 43
1975221N18116 1975 68 WP MM RITA 1975-08-24 12:00:00 MX 50.5000 155.500 1000 tokyo main 17 0 OO_______OOO__ jtwc_wp WP081975 49.0000 153.000 35 0 52.0000 158.000 6 1000 0 0 0 49.0000 153.000 TC 35 49.0000 153.000 2 35 49.0000 153.000 35 1000 240 70 47
1975221N18116 1975 68 WP MM RITA 1975-08-24 15:00:00 ET 53.1298 160.446 main 19 19 _P____________ WP081975 -1 53.1298 160.446 6 999 0 0 TC 2 53 48
1975221N18116 1975 68 WP MM RITA 1975-08-24 18:00:00 ET 54.0000 162.000 998 tokyo main 58 33 _O____________ -1 54.0000 162.000 6 998 0 0 0 2 29 36
1975221N18116 1975 68 WP MM RITA 1975-08-24 21:00:00 ET 55.4546 163.304 main 58 24 _P____________ -1 55.4546 163.304 6 998 0 0 2 33 25
1975221N18116 1975 68 WP MM RITA 1975-08-25 00:00:00 ET 57.0000 164.500 998 tokyo main 90 90 _O____________ -1 57.0000 164.500 6 998 0 0 0 31 24
1975221N18116 1975 68 WP MM RITA 1975-08-25 03:00:00 ET 58.2848 165.641 main 87 77 _P____________ -1 58.2848 165.641 6 996 0 0 31 36
1975221N18116 1975 68 WP MM RITA 1975-08-25 06:00:00 ET 59.5000 168.000 995 tokyo main 98 0 _O____________ -1 59.5000 168.000 6 995 0 0 0 48 60
1975221N18116 1975 68 WP MM RITA 1975-08-25 09:00:00 ET 60.6820 173.915 main 83 83 _P____________ -1 60.6820 173.915 6 992 0 0 60 70
1975221N18116 1975 68 WP MM RITA 1975-08-25 12:00:00 ET 61.5000 179.500 990 tokyo main 89 84 _O____________ -1 61.5000 179.500 6 990 0 0 0 37 65
1975221N18116 1975 68 EP CP RITA 1975-08-25 15:00:00 ET 62.2262 180.932 main 83 14 _P____________ -1 62.2262 -179.068 6 990 0 0 15 0
1975221N18116 1975 68 WP MM RITA 1975-08-25 18:00:00 ET 63.0000 179.500 990 tokyo main 10 _O____________ -1 63.0000 179.500 6 990 0 0 0 20 320

Digital Typhoon Data and Search

About IBTrACS Database

This database is a web-friendly format of International Best Track Archive for Climate Stewardship (IBTrACS), a global best track data archive curated by NOAA dating back to 1842.

Updated: 2021-11-26